Time;durP1;ratioP1;P1;durP2;ratioP2;P2;SDS_P1;SDS_P2;PMS_P1;PMS_P2;Temp;Humidity;BMP_temperature;BMP_pressure;BME280_temperature;BME280_humidity;BME280_pressure;Samples;Min_cycle;Max_cycle;Signal;HPM_P1;HPM_P2
2021/12/01 00:01:14;;;;;;;115.35;48.20;;;;;;;;;;5053614;28;20047;-50
2021/12/01 00:03:41;;;;;;;108.13;41.65;;;;;;;;;;5053500;28;20025;-54
2021/12/01 00:06:07;;;;;;;92.75;40.13;;;;;;;;;;5053158;28;20109;-45
2021/12/01 00:08:34;;;;;;;89.15;36.55;;;;;;;;;;5052935;28;20025;-44
2021/12/01 00:11:00;;;;;;;91.38;37.28;;;;;;;;;;5051567;28;20029;-49
2021/12/01 00:13:28;;;;;;;70.82;29.02;;;;;;;;;;5052364;28;20466;-50
2021/12/01 00:15:55;;;;;;;57.28;26.48;;;;;;;;;;5053158;28;20025;-51
2021/12/01 00:18:21;;;;;;;71.30;28.63;;;;;;;;;;5053481;28;20055;-48
2021/12/01 00:20:48;;;;;;;64.13;25.70;;;;;;;;;;5053432;28;20023;-50
2021/12/01 00:23:14;;;;;;;66.80;27.38;;;;;;;;;;5053183;28;20059;-50
2021/12/01 00:25:42;;;;;;;66.70;26.63;;;;;;;;;;5053390;28;20062;-49
2021/12/01 00:28:09;;;;;;;54.90;24.73;;;;;;;;;;5053062;28;20079;-50
2021/12/01 00:30:35;;;;;;;71.55;23.45;;;;;;;;;;5052972;28;20111;-49
2021/12/01 00:33:01;;;;;;;70.53;28.05;;;;;;;;;;5053482;28;20021;-48
2021/12/01 00:35:27;;;;;;;102.80;37.47;;;;;;;;;;5052915;28;20044;-48
2021/12/01 00:37:54;;;;;;;96.15;34.90;;;;;;;;;;5053291;28;20031;-52
2021/12/01 00:40:20;;;;;;;72.45;29.48;;;;;;;;;;5053093;28;20035;-50
2021/12/01 00:42:46;;;;;;;28.92;14.07;;;;;;;;;;5053162;28;20343;-51
2021/12/01 00:45:21;;;;;;;34.22;13.65;;;;;;;;;;5052984;28;20425;-49
2021/12/01 00:47:54;;;;;;;32.47;13.18;;;;;;;;;;5053058;28;20040;-49
2021/12/01 00:50:25;;;;;;;32.25;13.75;;;;;;;;;;5053101;28;20033;-52
2021/12/01 00:52:53;;;;;;;37.63;15.50;;;;;;;;;;5053004;28;20025;-50
2021/12/01 00:55:19;;;;;;;52.90;20.65;;;;;;;;;;5053098;28;20104;-50
2021/12/01 00:57:45;;;;;;;84.50;31.17;;;;;;;;;;5055982;28;20044;-52
2021/12/01 01:00:12;;;;;;;67.57;28.98;;;;;;;;;;5056928;28;20079;-46
2021/12/01 01:02:38;;;;;;;66.63;25.95;;;;;;;;;;5055847;28;20017;-52
2021/12/01 01:05:05;;;;;;;71.25;26.42;;;;;;;;;;5056973;28;20087;-48
2021/12/01 01:07:31;;;;;;;62.55;25.70;;;;;;;;;;5056712;28;20489;-51
2021/12/01 01:10:04;;;;;;;89.95;38.65;;;;;;;;;;5056865;28;20032;-51
2021/12/01 01:18:07;;;;;;;56.78;23.10;;;;;;;;;;5056490;28;20035;-52
2021/12/01 01:20:34;;;;;;;115.18;47.25;;;;;;;;;;5056732;28;20040;-51
2021/12/01 01:23:00;;;;;;;55.42;22.65;;;;;;;;;;5056211;28;20024;-50
2021/12/01 01:25:27;;;;;;;51.88;23.02;;;;;;;;;;5056525;28;20051;-50
2021/12/01 01:27:53;;;;;;;64.38;25.40;;;;;;;;;;5056520;28;20063;-50
2021/12/01 01:30:20;;;;;;;64.95;26.73;;;;;;;;;;5056181;28;20099;-46
2021/12/01 01:32:46;;;;;;;58.20;25.83;;;;;;;;;;5056410;28;20055;-51
2021/12/01 01:35:13;;;;;;;66.30;27.45;;;;;;;;;;5056282;28;20378;-49
2021/12/01 01:37:39;;;;;;;65.00;25.52;;;;;;;;;;5056195;28;20436;-52
2021/12/01 01:40:06;;;;;;;58.63;25.33;;;;;;;;;;5056238;28;20024;-45
2021/12/01 01:42:32;;;;;;;68.65;28.25;;;;;;;;;;5056504;28;20025;-51
2021/12/01 01:44:58;;;;;;;61.30;27.00;;;;;;;;;;5056354;28;20021;-49
2021/12/01 01:47:25;;;;;;;73.10;29.63;;;;;;;;;;5055980;28;20021;-50
2021/12/01 01:49:59;;;;;;;67.18;28.85;;;;;;;;;;5055942;28;20386;-48
2021/12/01 01:52:26;;;;;;;75.60;29.27;;;;;;;;;;5056128;28;20025;-46
2021/12/01 01:54:53;;;;;;;61.95;25.27;;;;;;;;;;5055778;28;20021;-52
2021/12/01 01:57:19;;;;;;;62.63;23.75;;;;;;;;;;5056007;28;20104;-51
2021/12/01 01:59:45;;;;;;;57.63;23.38;;;;;;;;;;5056137;28;20029;-52
2021/12/01 02:02:12;;;;;;;49.53;20.08;;;;;;;;;;5055955;28;20025;-47
2021/12/01 02:04:38;;;;;;;46.22;20.00;;;;;;;;;;5055867;28;20465;-46
2021/12/01 02:07:05;;;;;;;49.95;19.17;;;;;;;;;;5054815;28;20017;-50
2021/12/01 02:09:31;;;;;;;55.78;22.55;;;;;;;;;;5055344;28;20478;-50
2021/12/01 02:11:59;;;;;;;119.15;46.67;;;;;;;;;;5055709;28;20067;-51
2021/12/01 02:14:26;;;;;;;61.28;24.52;;;;;;;;;;5055302;28;20531;-48
2021/12/01 02:16:53;;;;;;;44.85;19.83;;;;;;;;;;5055725;28;20029;-47
2021/12/01 02:19:19;;;;;;;50.15;19.45;;;;;;;;;;5055467;28;20644;-48
2021/12/01 02:21:45;;;;;;;92.75;33.08;;;;;;;;;;5055410;28;20377;-46
2021/12/01 02:24:12;;;;;;;47.00;20.85;;;;;;;;;;5055316;28;20091;-48
2021/12/01 02:26:46;;;;;;;54.10;20.02;;;;;;;;;;5055284;28;20051;-46
2021/12/01 02:29:16;;;;;;;46.78;18.40;;;;;;;;;;5055288;28;20033;-51
2021/12/01 02:31:44;;;;;;;40.85;17.27;;;;;;;;;;5055321;28;20024;-46
2021/12/01 02:34:18;;;;;;;72.03;26.70;;;;;;;;;;5055122;28;20024;-45
2021/12/01 02:36:45;;;;;;;47.83;15.93;;;;;;;;;;5055101;28;20028;-48
2021/12/01 02:39:15;;;;;;;149.50;47.10;;;;;;;;;;5055359;28;20024;-48
2021/12/01 02:41:42;;;;;;;36.92;15.88;;;;;;;;;;5055188;28;20025;-47
2021/12/01 02:44:09;;;;;;;30.75;13.63;;;;;;;;;;5055109;28;20024;-45
2021/12/01 02:46:37;;;;;;;133.75;42.25;;;;;;;;;;5054988;28;20044;-46
2021/12/01 02:49:03;;;;;;;78.80;25.83;;;;;;;;;;5054983;28;20036;-49
2021/12/01 02:51:32;;;;;;;74.35;24.45;;;;;;;;;;5055028;28;20029;-47
2021/12/01 02:53:59;;;;;;;39.90;15.23;;;;;;;;;;5055142;28;20079;-46
2021/12/01 02:56:25;;;;;;;49.20;18.38;;;;;;;;;;5054858;28;20059;-47
2021/12/01 02:58:52;;;;;;;53.63;22.33;;;;;;;;;;5054873;28;20021;-47
2021/12/01 03:01:23;;;;;;;50.30;19.83;;;;;;;;;;5054463;28;20028;-47
2021/12/01 03:03:49;;;;;;;59.03;24.83;;;;;;;;;;5054639;28;20040;-46
2021/12/01 03:06:17;;;;;;;47.25;21.08;;;;;;;;;;5054666;28;20063;-46
2021/12/01 03:08:45;;;;;;;40.72;18.60;;;;;;;;;;5054444;28;20470;-50
2021/12/01 03:11:12;;;;;;;47.17;18.98;;;;;;;;;;5054329;28;20037;-52
2021/12/01 03:13:39;;;;;;;58.63;25.65;;;;;;;;;;5054293;28;20398;-46
2021/12/01 03:16:05;;;;;;;48.55;22.55;;;;;;;;;;5054273;28;20025;-48
2021/12/01 03:18:31;;;;;;;50.88;22.95;;;;;;;;;;5054139;28;20032;-51
2021/12/01 03:20:58;;;;;;;50.88;22.75;;;;;;;;;;5053775;28;20025;-46
2021/12/01 03:23:24;;;;;;;53.38;24.17;;;;;;;;;;5054324;28;20109;-50
2021/12/01 03:25:51;;;;;;;51.13;22.42;;;;;;;;;;5054453;28;20055;-46
2021/12/01 03:28:17;;;;;;;56.95;21.73;;;;;;;;;;5053915;28;20482;-45
2021/12/01 03:30:44;;;;;;;43.85;19.10;;;;;;;;;;5053968;28;20037;-49
2021/12/01 03:33:12;;;;;;;44.67;17.88;;;;;;;;;;5053923;28;20382;-52
2021/12/01 03:35:39;;;;;;;54.38;23.48;;;;;;;;;;5054136;28;20032;-51
2021/12/01 03:38:06;;;;;;;32.45;14.75;;;;;;;;;;5053998;28;20017;-48
2021/12/01 03:40:32;;;;;;;39.67;14.68;;;;;;;;;;5054046;28;20033;-53
2021/12/01 03:42:58;;;;;;;24.95;10.98;;;;;;;;;;5054075;28;20100;-52
2021/12/01 03:45:25;;;;;;;34.75;13.88;;;;;;;;;;5053847;28;20025;-51
2021/12/01 03:47:51;;;;;;;28.67;11.35;;;;;;;;;;5054323;28;20031;-52
2021/12/01 03:50:17;;;;;;;25.08;11.52;;;;;;;;;;5053868;28;20044;-51
2021/12/01 03:52:43;;;;;;;26.40;10.48;;;;;;;;;;5053711;28;20029;-52
2021/12/01 03:55:10;;;;;;;29.00;13.02;;;;;;;;;;5053788;28;20027;-52
2021/12/01 03:57:37;;;;;;;25.80;11.73;;;;;;;;;;5053924;28;20103;-53
2021/12/01 04:00:07;;;;;;;26.45;12.18;;;;;;;;;;5053523;28;20090;-51
2021/12/01 04:02:34;;;;;;;28.35;11.48;;;;;;;;;;5053677;28;20021;-46
2021/12/01 04:05:00;;;;;;;20.83;10.43;;;;;;;;;;5053848;28;20107;-47
2021/12/01 04:07:26;;;;;;;26.83;10.20;;;;;;;;;;5053272;28;20025;-44
2021/12/01 04:09:52;;;;;;;23.05;11.10;;;;;;;;;;5053368;28;20079;-48
2021/12/01 04:12:18;;;;;;;23.63;9.30;;;;;;;;;;5053666;28;20484;-50
2021/12/01 04:14:45;;;;;;;21.45;10.45;;;;;;;;;;5053376;28;20462;-52
2021/12/01 04:17:12;;;;;;;20.27;9.05;;;;;;;;;;5053548;28;20042;-51
2021/12/01 04:19:38;;;;;;;17.80;8.65;;;;;;;;;;5053684;28;20025;-49
2021/12/01 04:22:05;;;;;;;19.33;9.02;;;;;;;;;;5053525;28;20028;-52
2021/12/01 04:24:31;;;;;;;22.00;9.40;;;;;;;;;;5053015;28;20049;-52
2021/12/01 04:26:57;;;;;;;24.98;9.32;;;;;;;;;;5052890;28;20028;-50
2021/12/01 04:29:24;;;;;;;18.33;8.63;;;;;;;;;;5052923;28;20519;-50
2021/12/01 04:31:50;;;;;;;19.55;7.90;;;;;;;;;;5058443;28;20025;-52
2021/12/01 04:34:17;;;;;;;17.27;8.57;;;;;;;;;;5059515;28;20535;-49
2021/12/01 04:36:44;;;;;;;15.30;7.18;;;;;;;;;;5060034;28;20027;-48
2021/12/01 04:39:12;;;;;;;18.55;8.15;;;;;;;;;;5059547;28;20025;-51
2021/12/01 04:41:41;;;;;;;18.60;7.80;;;;;;;;;;5059755;28;20021;-51
2021/12/01 04:44:10;;;;;;;99.38;39.60;;;;;;;;;;5059618;28;20029;-49
2021/12/01 04:46:43;;;;;;;72.03;29.77;;;;;;;;;;5059553;28;20025;-51
2021/12/01 04:49:09;;;;;;;36.08;15.68;;;;;;;;;;5059657;28;20366;-50
2021/12/01 04:51:36;;;;;;;52.70;23.92;;;;;;;;;;5059480;28;20355;-52
2021/12/01 04:54:03;;;;;;;89.55;37.83;;;;;;;;;;5059719;28;20021;-50
2021/12/01 04:56:29;;;;;;;135.77;61.53;;;;;;;;;;5058945;28;20028;-47
2021/12/01 04:58:55;;;;;;;76.55;31.30;;;;;;;;;;5059529;28;20032;-52
2021/12/01 05:01:22;;;;;;;56.42;24.50;;;;;;;;;;5059711;28;20032;-52
2021/12/01 05:03:48;;;;;;;50.35;24.52;;;;;;;;;;5059036;28;20025;-49
2021/12/01 05:06:16;;;;;;;102.95;47.97;;;;;;;;;;5059491;28;20074;-48
2021/12/01 05:08:42;;;;;;;89.43;41.20;;;;;;;;;;5059539;28;20025;-51
2021/12/01 05:11:08;;;;;;;69.43;26.48;;;;;;;;;;5059845;28;20033;-49
2021/12/01 05:13:34;;;;;;;43.35;17.80;;;;;;;;;;5059985;28;20025;-52
2021/12/01 05:16:01;;;;;;;30.23;14.25;;;;;;;;;;5059178;28;20035;-53
2021/12/01 05:18:27;;;;;;;39.17;16.60;;;;;;;;;;5059421;28;20079;-53
2021/12/01 05:20:53;;;;;;;46.60;17.15;;;;;;;;;;5059294;28;20029;-52
2021/12/01 05:23:19;;;;;;;59.65;20.88;;;;;;;;;;5058702;28;20049;-51
2021/12/01 05:25:47;;;;;;;32.58;13.05;;;;;;;;;;5059611;28;20025;-51
2021/12/01 05:28:13;;;;;;;38.00;15.00;;;;;;;;;;5059400;28;20170;-51
2021/12/01 05:30:39;;;;;;;34.05;12.68;;;;;;;;;;5058861;28;20033;-54
2021/12/01 05:33:08;;;;;;;30.25;10.00;;;;;;;;;;5059068;28;20115;-53
2021/12/01 05:35:34;;;;;;;27.33;10.77;;;;;;;;;;5059591;28;20036;-53
2021/12/01 05:38:00;;;;;;;28.48;11.32;;;;;;;;;;5057346;28;20370;-55
2021/12/01 05:40:27;;;;;;;25.33;10.02;;;;;;;;;;5057672;28;20048;-53
2021/12/01 05:42:53;;;;;;;23.95;11.00;;;;;;;;;;5056836;28;20028;-49
2021/12/01 05:45:19;;;;;;;24.38;10.93;;;;;;;;;;5055952;28;20078;-50
2021/12/01 05:47:45;;;;;;;30.83;12.27;;;;;;;;;;5055800;28;20025;-51
2021/12/01 05:50:12;;;;;;;33.17;13.65;;;;;;;;;;5056068;28;20033;-51
2021/12/01 05:52:38;;;;;;;33.63;14.38;;;;;;;;;;5055859;28;20066;-50
2021/12/01 05:55:05;;;;;;;33.22;14.63;;;;;;;;;;5056059;28;20017;-47
2021/12/01 05:57:31;;;;;;;47.50;18.70;;;;;;;;;;5055864;28;20025;-49
2021/12/01 05:59:59;;;;;;;51.15;19.00;;;;;;;;;;5055657;28;20393;-51
2021/12/01 06:02:26;;;;;;;39.20;17.02;;;;;;;;;;5055664;28;20029;-49
2021/12/01 06:04:52;;;;;;;42.80;21.27;;;;;;;;;;5055652;28;20112;-49
2021/12/01 06:07:18;;;;;;;50.53;21.00;;;;;;;;;;5056304;28;20469;-47
2021/12/01 06:09:45;;;;;;;45.13;19.92;;;;;;;;;;5055761;28;20040;-48
2021/12/01 06:12:12;;;;;;;42.67;18.95;;;;;;;;;;5055231;28;20116;-47
2021/12/01 06:14:40;;;;;;;51.35;23.95;;;;;;;;;;5054560;28;20466;-48
2021/12/01 06:17:08;;;;;;;53.15;21.75;;;;;;;;;;5054614;28;20371;-52
2021/12/01 06:19:34;;;;;;;62.17;24.90;;;;;;;;;;5055177;28;20025;-49
2021/12/01 06:22:00;;;;;;;36.72;15.50;;;;;;;;;;5055113;28;20025;-51
2021/12/01 06:24:27;;;;;;;58.85;24.27;;;;;;;;;;5055629;28;20079;-49
2021/12/01 06:26:53;;;;;;;73.68;30.85;;;;;;;;;;5054952;28;20021;-49
2021/12/01 06:29:19;;;;;;;62.30;24.02;;;;;;;;;;5054684;28;20494;-52
2021/12/01 06:31:46;;;;;;;35.92;13.23;;;;;;;;;;5055251;28;20031;-48
2021/12/01 06:34:12;;;;;;;68.25;26.75;;;;;;;;;;5055265;28;20096;-53
2021/12/01 06:36:38;;;;;;;49.13;21.60;;;;;;;;;;5055283;28;20115;-52
2021/12/01 06:39:06;;;;;;;39.45;15.57;;;;;;;;;;5055296;28;20021;-53
2021/12/01 06:41:32;;;;;;;33.13;12.77;;;;;;;;;;5053840;28;20025;-48
2021/12/01 06:43:58;;;;;;;24.85;11.50;;;;;;;;;;5053707;28;20078;-51
2021/12/01 06:46:25;;;;;;;16.27;6.18;;;;;;;;;;5054630;28;20032;-52
2021/12/01 06:48:51;;;;;;;24.90;10.63;;;;;;;;;;5054742;28;20036;-51
2021/12/01 06:51:17;;;;;;;22.83;7.63;;;;;;;;;;5054730;28;20064;-51
2021/12/01 06:53:43;;;;;;;11.05;6.20;;;;;;;;;;5053470;28;20029;-49
2021/12/01 06:56:10;;;;;;;13.13;6.15;;;;;;;;;;5054171;28;20025;-53
2021/12/01 06:58:36;;;;;;;18.88;7.57;;;;;;;;;;5053580;28;20103;-50
2021/12/01 07:01:05;;;;;;;18.10;8.57;;;;;;;;;;5053988;28;20029;-50
2021/12/01 07:03:31;;;;;;;21.00;9.43;;;;;;;;;;5054344;28;20477;-53
2021/12/01 07:05:57;;;;;;;24.98;9.82;;;;;;;;;;5054583;28;20027;-51
2021/12/01 07:08:23;;;;;;;21.90;9.68;;;;;;;;;;5054636;28;20020;-50
2021/12/01 07:10:50;;;;;;;28.30;11.80;;;;;;;;;;5054732;28;20029;-48
2021/12/01 07:13:16;;;;;;;22.95;12.65;;;;;;;;;;5054918;28;20029;-52
2021/12/01 07:15:42;;;;;;;26.98;12.65;;;;;;;;;;5054492;28;20454;-54
2021/12/01 07:18:09;;;;;;;28.05;13.13;;;;;;;;;;5054667;28;20025;-52
2021/12/01 07:20:35;;;;;;;22.98;12.15;;;;;;;;;;5054793;28;20029;-51
2021/12/01 07:23:02;;;;;;;28.80;13.57;;;;;;;;;;5054078;28;20021;-53
2021/12/01 07:25:29;;;;;;;44.95;21.90;;;;;;;;;;5054182;28;20013;-52
2021/12/01 07:27:55;;;;;;;51.60;23.45;;;;;;;;;;5054496;28;20021;-52
2021/12/01 07:30:21;;;;;;;50.17;21.90;;;;;;;;;;5053058;28;20540;-54
2021/12/01 07:32:49;;;;;;;47.28;22.05;;;;;;;;;;5051779;28;20028;-52
2021/12/01 07:35:16;;;;;;;44.22;21.42;;;;;;;;;;5054014;28;20079;-52
2021/12/01 07:37:42;;;;;;;54.67;23.40;;;;;;;;;;5053967;28;20029;-54
2021/12/01 07:40:09;;;;;;;62.30;27.90;;;;;;;;;;5053855;28;20528;-53
2021/12/01 07:42:35;;;;;;;61.47;29.15;;;;;;;;;;5053818;28;20083;-54
2021/12/01 07:45:01;;;;;;;69.40;30.13;;;;;;;;;;5053142;28;20071;-54
2021/12/01 07:47:27;;;;;;;61.88;30.52;;;;;;;;;;5053270;28;20040;-54
2021/12/01 07:49:54;;;;;;;61.38;27.92;;;;;;;;;;5053659;28;20055;-53
2021/12/01 07:52:20;;;;;;;51.58;24.15;;;;;;;;;;5053762;28;20104;-47
2021/12/01 07:54:46;;;;;;;40.10;18.27;;;;;;;;;;5053596;28;20025;-47
2021/12/01 07:57:12;;;;;;;34.70;15.30;;;;;;;;;;5053707;28;20024;-46
2021/12/01 07:59:38;;;;;;;43.83;18.17;;;;;;;;;;5053834;28;20025;-51
2021/12/01 08:02:04;;;;;;;29.98;13.60;;;;;;;;;;5053390;28;20028;-53
2021/12/01 08:04:31;;;;;;;15.85;10.10;;;;;;;;;;5053468;28;20032;-52
2021/12/01 08:06:57;;;;;;;35.45;17.02;;;;;;;;;;5053293;28;20028;-51
2021/12/01 08:09:25;;;;;;;28.35;13.90;;;;;;;;;;5053381;28;20025;-52
2021/12/01 08:11:51;;;;;;;35.45;15.27;;;;;;;;;;5053150;28;20029;-48
2021/12/01 08:14:18;;;;;;;32.22;13.52;;;;;;;;;;5053513;28;20047;-52
2021/12/01 08:16:45;;;;;;;32.03;14.45;;;;;;;;;;5053858;28;20021;-51
2021/12/01 08:19:11;;;;;;;29.20;14.25;;;;;;;;;;5053601;28;20029;-50
2021/12/01 08:21:37;;;;;;;26.73;12.57;;;;;;;;;;5053457;28;20021;-51
2021/12/01 08:24:04;;;;;;;30.75;14.88;;;;;;;;;;5053479;28;20049;-49
2021/12/01 08:26:30;;;;;;;30.02;14.13;;;;;;;;;;5053423;28;20021;-48
2021/12/01 08:28:56;;;;;;;23.95;12.70;;;;;;;;;;5053067;28;20362;-51
2021/12/01 08:31:23;;;;;;;20.75;10.30;;;;;;;;;;5053599;28;20095;-52
2021/12/01 08:33:49;;;;;;;17.33;9.82;;;;;;;;;;5052946;28;20021;-52
2021/12/01 08:36:16;;;;;;;15.90;8.98;;;;;;;;;;5053329;28;20025;-49
2021/12/01 08:38:42;;;;;;;13.23;7.72;;;;;;;;;;5053102;28;20036;-51
2021/12/01 08:41:09;;;;;;;17.50;8.68;;;;;;;;;;5053409;28;20359;-53
2021/12/01 08:43:36;;;;;;;12.60;7.28;;;;;;;;;;5053357;28;20025;-51
2021/12/01 08:46:06;;;;;;;14.00;7.05;;;;;;;;;;5053154;28;20416;-50
2021/12/01 08:48:32;;;;;;;14.38;7.78;;;;;;;;;;5053657;28;20021;-52
2021/12/01 08:51:01;;;;;;;21.75;9.95;;;;;;;;;;5052931;28;20393;-51
2021/12/01 08:53:28;;;;;;;8.43;4.30;;;;;;;;;;5053085;28;20021;-52
2021/12/01 08:55:57;;;;;;;38.80;14.82;;;;;;;;;;5053616;28;20399;-53
2021/12/01 08:58:23;;;;;;;25.90;10.27;;;;;;;;;;5052833;28;20017;-50
2021/12/01 09:00:49;;;;;;;7.43;4.07;;;;;;;;;;5052996;28;20033;-52
2021/12/01 09:03:17;;;;;;;11.30;5.07;;;;;;;;;;5053160;28;20029;-55
2021/12/01 09:05:45;;;;;;;12.82;6.32;;;;;;;;;;5052890;28;20433;-51
2021/12/01 09:08:11;;;;;;;11.68;5.13;;;;;;;;;;5052963;28;20029;-50
2021/12/01 09:10:37;;;;;;;12.57;7.03;;;;;;;;;;5052990;28;20497;-52
2021/12/01 09:13:04;;;;;;;5.68;3.25;;;;;;;;;;5053123;28;20462;-52
2021/12/01 09:15:30;;;;;;;6.03;3.40;;;;;;;;;;5052591;28;20021;-49
2021/12/01 09:17:57;;;;;;;17.33;8.43;;;;;;;;;;5054269;28;20521;-50
2021/12/01 09:20:23;;;;;;;9.05;4.28;;;;;;;;;;5056826;28;20037;-51
2021/12/01 09:22:50;;;;;;;5.38;3.17;;;;;;;;;;5055937;28;20370;-51
2021/12/01 09:25:16;;;;;;;7.65;3.72;;;;;;;;;;5056649;28;20033;-51
2021/12/01 09:27:44;;;;;;;6.70;3.42;;;;;;;;;;5056464;28;20067;-53
2021/12/01 09:30:11;;;;;;;7.50;3.53;;;;;;;;;;5056463;28;20351;-52
2021/12/01 09:32:38;;;;;;;4.82;2.55;;;;;;;;;;5056417;28;20025;-52
2021/12/01 09:35:05;;;;;;;7.03;4.28;;;;;;;;;;5056202;28;20036;-52
2021/12/01 09:37:31;;;;;;;4.68;2.90;;;;;;;;;;5056509;28;20078;-54
2021/12/01 09:39:57;;;;;;;4.88;2.45;;;;;;;;;;5056332;28;20488;-53
2021/12/01 09:42:23;;;;;;;5.00;2.47;;;;;;;;;;5056351;28;20095;-52
2021/12/01 09:44:51;;;;;;;5.03;2.90;;;;;;;;;;5056094;28;20545;-52
2021/12/01 09:47:20;;;;;;;5.90;3.50;;;;;;;;;;5056044;28;20029;-51
2021/12/01 09:49:46;;;;;;;5.55;3.08;;;;;;;;;;5055910;28;20036;-50
2021/12/01 09:52:12;;;;;;;5.93;2.95;;;;;;;;;;5056233;28;20021;-51
2021/12/01 09:54:39;;;;;;;5.25;2.67;;;;;;;;;;5055963;28;20031;-54
2021/12/01 09:57:13;;;;;;;7.00;4.00;;;;;;;;;;5055765;28;20103;-51
2021/12/01 09:59:39;;;;;;;6.20;3.47;;;;;;;;;;5056048;28;20052;-51
2021/12/01 10:02:05;;;;;;;7.90;3.92;;;;;;;;;;5055835;28;20553;-53
2021/12/01 10:04:31;;;;;;;13.80;5.38;;;;;;;;;;5055578;28;20025;-52
2021/12/01 10:07:17;;;;;;;10.68;5.22;;;;;;;;;;5055768;28;20382;-51
2021/12/01 10:09:45;;;;;;;6.45;4.05;;;;;;;;;;5056128;28;20111;-54
2021/12/01 10:12:12;;;;;;;8.50;4.20;;;;;;;;;;5056114;28;20032;-53
2021/12/01 10:14:38;;;;;;;5.95;3.70;;;;;;;;;;5055680;28;20067;-49
2021/12/01 10:17:04;;;;;;;8.93;4.78;;;;;;;;;;5055644;28;20088;-51
2021/12/01 10:19:30;;;;;;;7.53;4.72;;;;;;;;;;5056261;28;20096;-51
2021/12/01 10:21:57;;;;;;;8.88;4.80;;;;;;;;;;5055654;28;20061;-52
2021/12/01 10:24:25;;;;;;;7.95;4.28;;;;;;;;;;5054997;28;20045;-50
2021/12/01 10:26:52;;;;;;;6.22;4.22;;;;;;;;;;5055583;28;20025;-54
2021/12/01 10:29:24;;;;;;;3.67;2.75;;;;;;;;;;5054968;28;20021;-54
2021/12/01 10:31:52;;;;;;;5.95;3.63;;;;;;;;;;5055588;28;20021;-50
2021/12/01 10:34:21;;;;;;;6.30;3.00;;;;;;;;;;5055047;28;20057;-52
2021/12/01 10:36:49;;;;;;;7.13;3.95;;;;;;;;;;5055980;28;20047;-54
2021/12/01 10:39:15;;;;;;;4.65;3.22;;;;;;;;;;5055108;28;20021;-52
2021/12/01 10:41:43;;;;;;;5.32;3.58;;;;;;;;;;5055291;28;20019;-51
2021/12/01 10:44:10;;;;;;;6.15;3.63;;;;;;;;;;5055208;28;20025;-53
2021/12/01 10:46:50;;;;;;;9.90;5.63;;;;;;;;;;5055030;28;20029;-50
2021/12/01 10:49:17;;;;;;;10.38;4.70;;;;;;;;;;5054718;28;20074;-52
2021/12/01 10:51:43;;;;;;;7.45;5.40;;;;;;;;;;5054654;28;20074;-50
2021/12/01 10:54:18;;;;;;;6.70;4.35;;;;;;;;;;5054905;28;20028;-49
2021/12/01 10:56:44;;;;;;;5.45;4.07;;;;;;;;;;5054923;28;20029;-50
2021/12/01 10:59:15;;;;;;;7.93;5.50;;;;;;;;;;5054737;28;20013;-48
2021/12/01 11:01:41;;;;;;;12.07;8.70;;;;;;;;;;5055019;28;20025;-52
2021/12/01 11:04:07;;;;;;;6.78;4.70;;;;;;;;;;5054778;28;20017;-52
2021/12/01 11:06:44;;;;;;;7.13;3.95;;;;;;;;;;5054616;28;20035;-55
2021/12/01 11:09:13;;;;;;;7.32;4.60;;;;;;;;;;5054694;28;20021;-54
2021/12/01 11:11:42;;;;;;;6.68;3.90;;;;;;;;;;5054743;28;20052;-53
2021/12/01 11:14:10;;;;;;;4.25;2.70;;;;;;;;;;5054470;28;20029;-54
2021/12/01 11:16:37;;;;;;;6.38;3.13;;;;;;;;;;5054206;28;20125;-52
2021/12/01 11:19:03;;;;;;;7.43;4.50;;;;;;;;;;5054543;28;20025;-52
2021/12/01 11:21:30;;;;;;;40.03;25.52;;;;;;;;;;5054357;28;20378;-53
2021/12/01 11:24:00;;;;;;;7.65;3.67;;;;;;;;;;5054069;28;20057;-52
2021/12/01 11:26:28;;;;;;;6.95;4.75;;;;;;;;;;5054324;28;20033;-53
2021/12/01 11:28:54;;;;;;;8.07;5.47;;;;;;;;;;5053783;28;20090;-52
2021/12/01 11:31:31;;;;;;;7.68;4.90;;;;;;;;;;5052896;28;20482;-53
2021/12/01 11:33:59;;;;;;;8.80;4.93;;;;;;;;;;5054027;28;20036;-53
2021/12/01 11:36:27;;;;;;;5.05;3.08;;;;;;;;;;5054293;28;20051;-52
2021/12/01 11:38:54;;;;;;;6.60;3.45;;;;;;;;;;5053815;28;20027;-52
2021/12/01 11:41:21;;;;;;;3.25;2.58;;;;;;;;;;5053209;28;20116;-53
2021/12/01 11:43:48;;;;;;;7.65;4.32;;;;;;;;;;5054681;28;20047;-53
2021/12/01 11:46:14;;;;;;;5.90;4.13;;;;;;;;;;5053999;28;20024;-50
2021/12/01 11:48:44;;;;;;;7.40;4.55;;;;;;;;;;5053551;28;20099;-52
2021/12/01 11:51:22;;;;;;;7.40;4.38;;;;;;;;;;5053775;28;20060;-52
2021/12/01 11:53:54;;;;;;;7.32;4.45;;;;;;;;;;5053944;28;20477;-50
2021/12/01 11:56:29;;;;;;;14.05;7.43;;;;;;;;;;5053484;28;20017;-50
2021/12/01 11:58:56;;;;;;;13.55;7.25;;;;;;;;;;5053332;28;20478;-51
2021/12/01 12:01:22;;;;;;;13.98;7.53;;;;;;;;;;5054344;28;20032;-50
2021/12/01 12:03:55;;;;;;;5.65;4.10;;;;;;;;;;5053467;28;20033;-52
2021/12/01 12:06:21;;;;;;;6.03;3.70;;;;;;;;;;5053627;28;20059;-53
2021/12/01 12:09:00;;;;;;;5.65;4.32;;;;;;;;;;5053747;28;20029;-49
2021/12/01 12:11:32;;;;;;;22.40;11.70;;;;;;;;;;5053250;28;20100;-53
2021/12/01 12:14:00;;;;;;;16.83;10.02;;;;;;;;;;5053397;28;20025;-50
2021/12/01 12:16:26;;;;;;;24.35;11.20;;;;;;;;;;5053573;28;20020;-51
2021/12/01 12:18:53;;;;;;;11.25;5.18;;;;;;;;;;5053272;28;20108;-52
2021/12/01 12:21:46;;;;;;;3.40;2.35;;;;;;;;;;5053495;28;20078;-48
2021/12/01 12:24:16;;;;;;;20.65;8.23;;;;;;;;;;5053027;28;20517;-53
2021/12/01 12:26:44;;;;;;;5.28;3.60;;;;;;;;;;5053479;28;20037;-51
2021/12/01 12:29:13;;;;;;;7.60;5.40;;;;;;;;;;5053488;28;20393;-52
2021/12/01 12:31:39;;;;;;;7.28;4.75;;;;;;;;;;5052832;28;20036;-51
2021/12/01 12:34:09;;;;;;;6.03;3.17;;;;;;;;;;5052234;28;20032;-53
2021/12/01 12:36:35;;;;;;;7.10;4.30;;;;;;;;;;5052940;28;20501;-51
2021/12/01 12:39:03;;;;;;;8.50;4.72;;;;;;;;;;5053147;28;20028;-48
2021/12/01 12:41:30;;;;;;;6.07;3.70;;;;;;;;;;5053120;28;20424;-48
2021/12/01 12:44:16;;;;;;;7.28;4.90;;;;;;;;;;5052913;28;20089;-49
2021/12/01 12:47:00;;;;;;;7.25;4.15;;;;;;;;;;5052979;28;20056;-54
2021/12/01 12:49:40;;;;;;;9.18;5.25;;;;;;;;;;5053264;28;20106;-50
2021/12/01 12:52:25;;;;;;;4.50;3.30;;;;;;;;;;5054889;28;20107;-53
2021/12/01 12:55:11;;;;;;;8.65;5.18;;;;;;;;;;5057250;28;20028;-51
2021/12/01 12:57:48;;;;;;;4.68;2.85;;;;;;;;;;5053048;28;20041;-50
2021/12/01 13:00:23;;;;;;;6.80;4.47;;;;;;;;;;5057409;28;20365;-52
2021/12/01 13:02:49;;;;;;;7.28;3.83;;;;;;;;;;5057050;28;20035;-51
2021/12/01 13:05:29;;;;;;;9.18;4.38;;;;;;;;;;5056858;28;20467;-53
2021/12/01 13:07:56;;;;;;;6.63;3.53;;;;;;;;;;5057046;28;20108;-52
2021/12/01 13:10:48;;;;;;;7.22;3.67;;;;;;;;;;5056661;28;20033;-52
2021/12/01 13:13:18;;;;;;;13.77;6.95;;;;;;;;;;5056062;28;20390;-48
2021/12/01 13:15:52;;;;;;;8.20;4.47;;;;;;;;;;5056346;28;20020;-49
2021/12/01 13:18:21;;;;;;;13.18;4.10;;;;;;;;;;5056753;28;20112;-53
2021/12/01 13:20:51;;;;;;;7.68;4.65;;;;;;;;;;5056289;28;20028;-49
2021/12/01 13:23:20;;;;;;;7.63;3.22;;;;;;;;;;5056491;28;20049;-50
2021/12/01 13:25:53;;;;;;;8.57;3.83;;;;;;;;;;5056269;28;20092;-49
2021/12/01 13:28:27;;;;;;;6.45;3.47;;;;;;;;;;5056377;28;20473;-49
2021/12/01 13:30:55;;;;;;;7.70;3.92;;;;;;;;;;5056351;28;20029;-50
2021/12/01 13:33:21;;;;;;;5.15;3.50;;;;;;;;;;5056549;28;20053;-53
2021/12/01 13:35:47;;;;;;;5.50;2.90;;;;;;;;;;5056697;28;20108;-51
2021/12/01 13:38:13;;;;;;;5.28;3.33;;;;;;;;;;5056382;28;20029;-48
2021/12/01 13:40:40;;;;;;;6.95;4.07;;;;;;;;;;5055605;28;20081;-49
2021/12/01 13:43:19;;;;;;;9.00;4.80;;;;;;;;;;5055803;28;20044;-53
2021/12/01 13:46:05;;;;;;;9.88;3.42;;;;;;;;;;5055986;28;20482;-49
2021/12/01 13:48:32;;;;;;;7.25;4.00;;;;;;;;;;5054511;28;20532;-52
2021/12/01 13:51:05;;;;;;;3.72;3.05;;;;;;;;;;5056132;28;20060;-48
2021/12/01 13:53:31;;;;;;;3.03;2.05;;;;;;;;;;5055674;28;20021;-52
2021/12/01 13:55:59;;;;;;;3.20;2.45;;;;;;;;;;5056069;28;20381;-48
2021/12/01 13:58:25;;;;;;;2.92;2.00;;;;;;;;;;5055991;28;20095;-50
2021/12/01 14:00:53;;;;;;;3.42;2.15;;;;;;;;;;5055675;28;20474;-49
2021/12/01 14:03:20;;;;;;;8.45;5.10;;;;;;;;;;5055360;28;20021;-49
2021/12/01 14:05:50;;;;;;;6.78;3.10;;;;;;;;;;5056020;28;20029;-48
2021/12/01 14:08:22;;;;;;;11.32;5.47;;;;;;;;;;5056077;28;20048;-51
2021/12/01 14:10:48;;;;;;;16.90;7.85;;;;;;;;;;5055604;28;20074;-52
2021/12/01 14:13:18;;;;;;;5.70;3.53;;;;;;;;;;5054426;28;20036;-48
2021/12/01 14:15:45;;;;;;;10.40;3.90;;;;;;;;;;5055672;28;20351;-53
2021/12/01 14:18:11;;;;;;;16.00;5.47;;;;;;;;;;5055926;28;20029;-51
2021/12/01 14:20:37;;;;;;;10.63;6.18;;;;;;;;;;5055731;28;20525;-50
2021/12/01 14:23:04;;;;;;;11.15;5.35;;;;;;;;;;5055011;28;20490;-53
2021/12/01 14:25:30;;;;;;;10.93;4.57;;;;;;;;;;5055923;28;20168;-51
2021/12/01 14:28:02;;;;;;;8.27;3.95;;;;;;;;;;5055266;28;20359;-52
2021/12/01 14:30:28;;;;;;;7.03;3.85;;;;;;;;;;5055489;28;20029;-52
2021/12/01 14:32:55;;;;;;;17.58;6.28;;;;;;;;;;5055186;28;20458;-50
2021/12/01 14:35:22;;;;;;;16.50;5.10;;;;;;;;;;5055106;28;20039;-50